createdAt,value
2023-04-18T00:00:15.536Z,83.81
2023-04-18T00:01:15.552Z,83.71
2023-04-18T00:02:15.503Z,83.91
2023-04-18T00:03:15.807Z,84.01
2023-04-18T00:04:15.949Z,84.01
2023-04-18T00:05:15.606Z,84.01
2023-04-18T00:06:15.439Z,84.22
2023-04-18T00:07:15.472Z,84.33
2023-04-18T00:08:15.450Z,84.43
2023-04-18T00:09:15.479Z,84.53
2023-04-18T00:10:15.487Z,84.64
2023-04-18T00:11:15.399Z,84.64
2023-04-18T00:12:15.407Z,84.84
2023-04-18T00:13:15.458Z,84.64
2023-04-18T00:14:15.609Z,84.84
2023-04-18T00:15:15.336Z,84.84
2023-04-18T00:16:15.415Z,84.84
2023-04-18T00:17:15.374Z,85.05
2023-04-18T00:18:15.576Z,85.25
2023-04-18T00:19:15.309Z,85.60
2023-04-18T00:20:15.388Z,85.71
2023-04-18T00:21:15.317Z,85.81
2023-04-18T00:22:15.314Z,86.02
2023-04-18T00:23:15.298Z,86.22
2023-04-18T00:24:15.485Z,86.32
2023-04-18T00:25:15.283Z,86.32
2023-04-18T00:26:15.247Z,86.32
2023-04-18T00:27:15.273Z,86.43
2023-04-18T00:28:15.230Z,86.12
2023-04-18T00:29:15.259Z,86.22
2023-04-18T00:30:15.254Z,86.32
2023-04-18T00:31:15.251Z,86.57
2023-04-18T00:32:15.175Z,86.57
2023-04-18T00:33:15.171Z,86.57
2023-04-18T00:34:15.309Z,86.68
2023-04-18T00:35:15.180Z,86.98
2023-04-18T00:36:15.153Z,86.98
2023-04-18T00:37:15.141Z,87.08
2023-04-18T00:38:15.157Z,87.19
2023-04-18T00:39:15.127Z,87.19
2023-04-18T00:40:15.163Z,87.29
2023-04-18T00:41:15.112Z,87.08
2023-04-18T00:42:15.072Z,87.19
2023-04-18T00:43:15.169Z,87.19
2023-04-18T00:44:15.180Z,87.29
2023-04-18T00:45:15.069Z,87.19
2023-04-18T00:46:15.045Z,87.19
2023-04-18T00:47:15.068Z,87.08
2023-04-18T00:48:15.188Z,86.98
2023-04-18T00:49:15.029Z,87.19
2023-04-18T00:50:15.001Z,87.08
2023-04-18T00:51:15.001Z,87.08
2023-04-18T00:52:14.950Z,87.08
2023-04-18T00:53:15.019Z,87.19
2023-04-18T00:54:15.243Z,86.84
2023-04-18T00:55:14.932Z,86.63
2023-04-18T00:56:14.915Z,86.43
2023-04-18T00:57:14.919Z,86.74
2023-04-18T00:58:14.941Z,86.63
2023-04-18T00:59:14.983Z,86.43
2023-04-18T01:00:14.898Z,86.57
2023-04-18T01:01:14.900Z,86.78
2023-04-18T01:02:14.960Z,86.78
2023-04-18T01:03:15.010Z,86.88
2023-04-18T01:04:15.147Z,86.98
2023-04-18T01:05:14.839Z,87.08
2023-04-18T01:06:14.803Z,87.19
2023-04-18T01:07:14.796Z,87.40
2023-04-18T01:08:14.852Z,87.60
2023-04-18T01:09:14.786Z,87.71
2023-04-18T01:10:14.835Z,87.85
2023-04-18T01:11:14.787Z,88.06
2023-04-18T01:12:14.808Z,88.16
2023-04-18T01:13:14.772Z,88.37
2023-04-18T01:14:14.962Z,88.47
2023-04-18T01:15:14.758Z,88.57
2023-04-18T01:16:14.762Z,88.68
2023-04-18T01:17:14.737Z,88.37
2023-04-18T01:18:14.690Z,88.06
2023-04-18T01:19:14.675Z,88.06
2023-04-18T01:20:14.680Z,88.06
2023-04-18T01:21:14.702Z,87.95
2023-04-18T01:22:14.648Z,87.40
2023-04-18T01:23:14.644Z,87.29
2023-04-18T01:24:14.924Z,87.29
2023-04-18T01:25:14.635Z,87.19
2023-04-18T01:26:14.598Z,87.19
2023-04-18T01:27:14.603Z,87.50
2023-04-18T01:28:14.584Z,87.50
2023-04-18T01:29:14.620Z,87.50
2023-04-18T01:30:14.614Z,87.40
2023-04-18T01:31:14.585Z,87.71
2023-04-18T01:32:14.529Z,87.92
2023-04-18T01:33:14.610Z,87.92
2023-04-18T01:34:14.851Z,87.92
2023-04-18T01:35:14.541Z,88.02
2023-04-18T01:36:14.527Z,88.02
2023-04-18T01:37:14.530Z,88.02
2023-04-18T01:38:14.466Z,88.12
2023-04-18T01:39:14.564Z,88.02
2023-04-18T01:40:14.501Z,88.12
2023-04-18T01:41:14.455Z,88.12
2023-04-18T01:42:14.444Z,88.32
2023-04-18T01:43:14.471Z,88.32
2023-04-18T01:44:14.629Z,88.22
2023-04-18T01:45:14.449Z,88.43
2023-04-18T01:46:14.436Z,88.43
2023-04-18T01:47:14.476Z,88.43
2023-04-18T01:48:14.368Z,88.53
2023-04-18T01:49:14.392Z,88.74
2023-04-18T01:50:14.362Z,88.74
2023-04-18T01:51:14.356Z,88.22
2023-04-18T01:52:14.338Z,88.43
2023-04-18T01:53:14.342Z,88.78
2023-04-18T01:54:14.508Z,88.89
2023-04-18T01:55:14.325Z,88.98
2023-04-18T01:56:14.281Z,89.09
2023-04-18T01:57:14.297Z,89.19
2023-04-18T01:58:14.326Z,89.29
2023-04-18T01:59:14.262Z,89.61
2023-04-18T02:00:14.246Z,89.50
2023-04-18T02:01:14.283Z,89.65
2023-04-18T02:02:14.288Z,89.65
2023-04-18T02:03:14.443Z,89.65
2023-04-18T02:04:14.417Z,89.86
2023-04-18T02:05:14.226Z,89.95
2023-04-18T02:06:14.177Z,89.95
2023-04-18T02:07:14.236Z,90.06
2023-04-18T02:08:14.194Z,90.06
2023-04-18T02:09:14.182Z,90.16
2023-04-18T02:10:14.168Z,90.37
2023-04-18T02:11:14.156Z,90.41
2023-04-18T02:12:14.145Z,90.52
2023-04-18T02:13:14.154Z,90.62
2023-04-18T02:14:14.309Z,90.62
2023-04-18T02:15:14.125Z,90.83
2023-04-18T02:16:14.216Z,90.93
2023-04-18T02:17:14.083Z,91.03
2023-04-18T02:18:14.068Z,91.24
2023-04-18T02:19:14.137Z,91.38
2023-04-18T02:20:14.113Z,91.44
2023-04-18T02:21:14.048Z,91.34
2023-04-18T02:22:14.043Z,91.38
2023-04-18T02:23:14.036Z,91.38
2023-04-18T02:24:14.281Z,91.34
2023-04-18T02:25:14.068Z,91.24
2023-04-18T02:26:13.994Z,91.13
2023-04-18T02:27:14.010Z,91.13
2023-04-18T02:28:14.021Z,91.13
2023-04-18T02:29:14.255Z,91.13
2023-04-18T02:30:14.012Z,91.13
2023-04-18T02:31:13.990Z,91.28
2023-04-18T02:32:13.951Z,91.34
2023-04-18T02:33:13.958Z,91.24
2023-04-18T02:34:14.226Z,91.24
2023-04-18T02:35:13.936Z,91.24
2023-04-18T02:36:13.918Z,91.13
2023-04-18T02:37:13.887Z,91.03
2023-04-18T02:38:13.871Z,91.03
2023-04-18T02:39:13.877Z,91.13
2023-04-18T02:40:13.856Z,90.72
2023-04-18T02:41:13.890Z,90.58
2023-04-18T02:42:13.850Z,90.58
2023-04-18T02:43:13.867Z,90.58
2023-04-18T02:44:13.910Z,90.47
2023-04-18T02:45:13.814Z,90.58
2023-04-18T02:46:13.830Z,90.58
2023-04-18T02:47:13.816Z,90.78
2023-04-18T02:48:13.789Z,90.89
2023-04-18T02:49:13.774Z,91.09
2023-04-18T02:50:13.747Z,90.78
2023-04-18T02:51:14.059Z,90.78
2023-04-18T02:52:13.752Z,90.78
2023-04-18T02:53:13.765Z,91.09
2023-04-18T02:54:14.004Z,90.99
2023-04-18T02:55:13.713Z,90.99
2023-04-18T02:56:13.693Z,90.89
2023-04-18T02:57:13.727Z,90.78
2023-04-18T02:58:13.675Z,90.78
2023-04-18T02:59:13.660Z,90.68
2023-04-18T03:00:13.691Z,90.26
2023-04-18T03:01:13.713Z,90.12
2023-04-18T03:02:13.766Z,90.33
2023-04-18T03:03:13.666Z,90.33
2023-04-18T03:04:13.958Z,90.02
2023-04-18T03:05:13.665Z,90.02
2023-04-18T03:06:13.641Z,90.12
2023-04-18T03:07:13.575Z,90.02
2023-04-18T03:08:13.603Z,89.81
2023-04-18T03:09:13.639Z,90.12
2023-04-18T03:10:13.564Z,89.92
2023-04-18T03:11:13.588Z,89.81
2023-04-18T03:12:13.565Z,90.12
2023-04-18T03:13:13.556Z,89.77
2023-04-18T03:14:13.639Z,89.56
2023-04-18T03:15:13.518Z,89.98
2023-04-18T03:16:13.541Z,89.77
2023-04-18T03:17:13.458Z,89.77
2023-04-18T03:18:13.489Z,89.05
2023-04-18T03:19:13.468Z,88.95
2023-04-18T03:20:13.460Z,89.05
2023-04-18T03:21:13.426Z,89.15
2023-04-18T03:22:13.432Z,89.36
2023-04-18T03:23:13.421Z,89.46
2023-04-18T03:24:13.731Z,88.95
2023-04-18T03:25:13.397Z,89.05
2023-04-18T03:26:13.379Z,89.46
2023-04-18T03:27:13.910Z,89.15
2023-04-18T03:28:14.540Z,89.15
2023-04-18T03:29:13.390Z,89.36
2023-04-18T03:30:13.361Z,89.36
2023-04-18T03:31:13.378Z,89.25
2023-04-18T03:32:13.315Z,89.36
2023-04-18T03:33:13.341Z,88.95
2023-04-18T03:34:13.525Z,88.95
2023-04-18T03:35:13.297Z,89.11
2023-04-18T03:36:13.289Z,88.84
2023-04-18T03:37:13.258Z,88.80
2023-04-18T03:38:13.289Z,89.01
2023-04-18T03:39:13.258Z,88.80
2023-04-18T03:40:13.275Z,88.80
2023-04-18T03:41:13.244Z,88.90
2023-04-18T03:42:13.234Z,88.29
2023-04-18T03:43:13.204Z,88.80
2023-04-18T03:44:13.463Z,88.80
2023-04-18T03:45:13.166Z,88.80
2023-04-18T03:46:13.256Z,88.70
2023-04-18T03:47:13.180Z,88.49
2023-04-18T03:48:13.166Z,88.70
2023-04-18T03:49:13.139Z,88.29
2023-04-18T03:50:13.156Z,88.49
2023-04-18T03:51:13.123Z,88.39
2023-04-18T03:52:13.137Z,88.18
2023-04-18T03:53:13.099Z,87.87
2023-04-18T03:54:13.253Z,87.98
2023-04-18T03:55:13.080Z,87.98
2023-04-18T03:56:13.067Z,87.77
2023-04-18T03:57:13.051Z,87.56
2023-04-18T03:58:13.007Z,87.66
2023-04-18T03:59:12.996Z,87.87
2023-04-18T04:00:13.016Z,87.66
2023-04-18T04:01:12.965Z,87.77
2023-04-18T04:02:13.070Z,87.66
2023-04-18T04:03:13.151Z,87.26
2023-04-18T04:04:13.265Z,87.73
2023-04-18T04:05:12.977Z,87.63
2023-04-18T04:06:12.933Z,87.52
2023-04-18T04:07:12.910Z,87.73
2023-04-18T04:08:12.879Z,87.42
2023-04-18T04:09:12.887Z,87.63
2023-04-18T04:10:12.874Z,87.52
2023-04-18T04:11:12.932Z,87.63
2023-04-18T04:12:12.848Z,87.73
2023-04-18T04:13:12.902Z,87.52
2023-04-18T04:14:13.183Z,87.52
2023-04-18T04:15:12.816Z,87.52
2023-04-18T04:16:12.850Z,87.63
2023-04-18T04:17:12.794Z,87.42
2023-04-18T04:18:12.785Z,87.42
2023-04-18T04:19:12.766Z,87.32
2023-04-18T04:20:12.835Z,87.11
2023-04-18T04:21:12.765Z,87.01
2023-04-18T04:22:12.749Z,87.42
2023-04-18T04:23:12.742Z,87.21
2023-04-18T04:24:13.359Z,87.11
2023-04-18T04:25:12.738Z,87.42
2023-04-18T04:26:12.710Z,87.32
2023-04-18T04:27:12.713Z,87.21
2023-04-18T04:28:12.711Z,87.52
2023-04-18T04:29:12.647Z,87.52
2023-04-18T04:30:13.486Z,87.42
2023-04-18T04:31:12.665Z,87.52
2023-04-18T04:32:12.710Z,87.32
2023-04-18T04:33:12.598Z,87.21
2023-04-18T04:34:12.775Z,87.21
2023-04-18T04:35:12.602Z,87.32
2023-04-18T04:36:12.586Z,87.11
2023-04-18T04:37:12.558Z,87.32
2023-04-18T04:38:12.565Z,87.63
2023-04-18T04:39:12.570Z,87.01
2023-04-18T04:40:12.649Z,87.01
2023-04-18T04:41:12.514Z,87.01
2023-04-18T04:42:12.636Z,87.21
2023-04-18T04:43:12.604Z,87.11
2023-04-18T04:44:12.687Z,87.21
2023-04-18T04:45:12.475Z,87.17
2023-04-18T04:46:12.539Z,86.76
2023-04-18T04:47:12.484Z,86.66
2023-04-18T04:48:12.469Z,86.87
2023-04-18T04:49:12.461Z,87.07
2023-04-18T04:50:12.465Z,86.87
2023-04-18T04:51:12.423Z,86.66
2023-04-18T04:52:12.421Z,86.76
2023-04-18T04:53:12.417Z,86.76
2023-04-18T04:54:12.787Z,86.55
2023-04-18T04:55:12.386Z,86.55
2023-04-18T04:56:12.418Z,86.66
2023-04-18T04:57:12.375Z,86.35
2023-04-18T04:58:12.387Z,86.66
2023-04-18T04:59:12.329Z,86.45
2023-04-18T05:00:12.317Z,86.55
2023-04-18T05:01:12.370Z,86.55
2023-04-18T05:02:12.461Z,86.55
2023-04-18T05:03:12.529Z,86.66
2023-04-18T05:04:12.731Z,86.87
2023-04-18T05:05:12.316Z,86.76
2023-04-18T05:06:12.424Z,86.66
2023-04-18T05:07:12.250Z,86.45
2023-04-18T05:08:12.249Z,86.66
2023-04-18T05:09:12.235Z,86.87
2023-04-18T05:10:12.246Z,86.76
2023-04-18T05:11:12.205Z,86.55
2023-04-18T05:12:12.224Z,86.97
2023-04-18T05:13:12.212Z,87.07
2023-04-18T05:14:12.439Z,87.27
2023-04-18T05:15:12.181Z,87.07
2023-04-18T05:16:12.188Z,86.76
2023-04-18T05:17:12.196Z,86.82
2023-04-18T05:18:12.149Z,86.82
2023-04-18T05:19:12.129Z,86.52
2023-04-18T05:20:12.385Z,86.41
2023-04-18T05:21:12.099Z,86.10
2023-04-18T05:22:12.113Z,86.00
2023-04-18T05:23:12.080Z,85.69
2023-04-18T05:24:12.172Z,85.89
2023-04-18T05:25:12.056Z,85.89
2023-04-18T05:26:12.089Z,85.55
2023-04-18T05:27:12.035Z,85.65
2023-04-18T05:28:12.233Z,85.24
2023-04-18T05:29:12.050Z,85.44
2023-04-18T05:30:12.010Z,85.96
2023-04-18T05:31:12.070Z,86.06
2023-04-18T05:32:11.985Z,85.96
2023-04-18T05:33:12.031Z,85.69
2023-04-18T05:34:12.426Z,85.49
2023-04-18T05:35:11.953Z,85.59
2023-04-18T05:36:11.935Z,86.10
2023-04-18T05:37:11.933Z,85.79
2023-04-18T05:38:11.933Z,85.69
2023-04-18T05:39:11.896Z,86.00
2023-04-18T05:40:11.955Z,85.89
2023-04-18T05:41:11.914Z,86.00
2023-04-18T05:42:11.892Z,86.10
2023-04-18T05:43:11.893Z,86.21
2023-04-18T05:44:11.851Z,85.59
2023-04-18T05:45:11.849Z,86.00
2023-04-18T05:46:11.863Z,86.10
2023-04-18T05:47:11.823Z,86.16
2023-04-18T05:48:11.809Z,86.16
2023-04-18T05:49:11.807Z,86.27
2023-04-18T05:50:11.827Z,86.06
2023-04-18T05:51:11.821Z,86.06
2023-04-18T05:52:11.763Z,85.96
2023-04-18T05:53:11.746Z,86.06
2023-04-18T05:54:11.862Z,85.96
2023-04-18T05:55:11.744Z,86.06
2023-04-18T05:56:11.746Z,85.75
2023-04-18T05:57:11.741Z,85.55
2023-04-18T05:58:11.758Z,86.06
2023-04-18T05:59:11.698Z,85.03
2023-04-18T06:00:11.690Z,85.24
2023-04-18T06:01:11.718Z,85.34
2023-04-18T06:02:11.754Z,84.89
2023-04-18T06:03:11.971Z,84.89
2023-04-18T06:04:11.883Z,85.20
2023-04-18T06:05:12.171Z,84.79
2023-04-18T06:06:11.645Z,85.20
2023-04-18T06:07:11.614Z,85.82
2023-04-18T06:08:11.683Z,85.41
2023-04-18T06:09:11.581Z,85.41
2023-04-18T06:10:11.604Z,85.20
2023-04-18T06:11:11.570Z,85.10
2023-04-18T06:12:11.557Z,84.99
2023-04-18T06:13:11.541Z,84.89
2023-04-18T06:14:11.843Z,85.10
2023-04-18T06:15:11.530Z,85.20
2023-04-18T06:16:11.669Z,85.10
2023-04-18T06:17:11.496Z,84.69
2023-04-18T06:18:11.520Z,84.99
2023-04-18T06:19:11.487Z,85.20
2023-04-18T06:20:11.468Z,84.79
2023-04-18T06:21:11.445Z,85.10
2023-04-18T06:22:11.452Z,85.30
2023-04-18T06:23:11.426Z,85.78
2023-04-18T06:24:11.524Z,85.88
2023-04-18T06:25:11.396Z,85.36
2023-04-18T06:26:11.444Z,85.06
2023-04-18T06:27:24.187Z,84.54
2023-04-18T06:28:11.402Z,84.34
2023-04-18T06:29:11.396Z,84.34
2023-04-18T06:30:11.350Z,84.34
2023-04-18T06:31:11.364Z,84.75
2023-04-18T06:32:11.346Z,85.88
2023-04-18T06:33:11.311Z,86.70
2023-04-18T06:34:11.433Z,86.60
2023-04-18T06:35:11.294Z,86.40
2023-04-18T06:36:11.286Z,85.57
2023-04-18T06:37:11.300Z,85.57
2023-04-18T06:38:11.273Z,84.64
2023-04-18T06:39:11.254Z,84.95
2023-04-18T06:40:11.237Z,84.95
2023-04-18T06:41:11.292Z,85.06
2023-04-18T06:42:11.244Z,84.95
2023-04-18T06:43:11.296Z,84.95
2023-04-18T06:44:11.194Z,85.71
2023-04-18T06:45:11.198Z,85.20
2023-04-18T06:46:11.242Z,85.10
2023-04-18T06:47:11.235Z,85.92
2023-04-18T06:48:11.152Z,86.02
2023-04-18T06:49:11.208Z,86.43
2023-04-18T06:50:11.148Z,86.33
2023-04-18T06:51:11.133Z,86.43
2023-04-18T06:52:11.101Z,86.13
2023-04-18T06:53:11.097Z,86.23
2023-04-18T06:54:11.184Z,85.98
2023-04-18T06:55:11.104Z,86.60
2023-04-18T06:56:11.098Z,86.40
2023-04-18T06:57:11.089Z,85.98
2023-04-18T06:58:11.097Z,85.98
2023-04-18T06:59:11.204Z,85.78
2023-04-18T07:00:11.132Z,86.29
2023-04-18T07:01:11.050Z,85.68
2023-04-18T07:02:11.028Z,85.26
2023-04-18T07:03:11.520Z,85.78
2023-04-18T07:04:11.199Z,85.78
2023-04-18T07:05:11.010Z,85.47
2023-04-18T07:06:11.051Z,85.26
2023-04-18T07:07:10.971Z,85.36
2023-04-18T07:08:10.965Z,85.36
2023-04-18T07:09:10.939Z,85.47
2023-04-18T07:10:10.951Z,85.36
2023-04-18T07:11:10.929Z,85.36
2023-04-18T07:12:10.908Z,85.57
2023-04-18T07:13:10.911Z,85.36
2023-04-18T07:14:10.896Z,85.36
2023-04-18T07:15:10.898Z,85.88
2023-04-18T07:16:10.860Z,85.88
2023-04-18T07:17:10.942Z,85.98
2023-04-18T07:18:10.871Z,85.98
2023-04-18T07:19:10.846Z,85.88
2023-04-18T07:20:12.295Z,86.08
2023-04-18T07:21:10.815Z,86.08
2023-04-18T07:22:10.861Z,86.08
2023-04-18T07:23:10.796Z,85.78
2023-04-18T07:24:10.836Z,85.47
2023-04-18T07:25:10.785Z,85.88
2023-04-18T07:26:10.755Z,86.19
2023-04-18T07:27:10.762Z,86.50
2023-04-18T07:28:10.815Z,85.68
2023-04-18T07:29:10.741Z,86.29
2023-04-18T07:30:10.730Z,86.08
2023-04-18T07:31:10.759Z,85.98
2023-04-18T07:32:10.713Z,85.98
2023-04-18T07:33:10.738Z,85.78
2023-04-18T07:34:10.690Z,85.57
2023-04-18T07:35:10.665Z,85.68
2023-04-18T07:36:10.724Z,85.88
2023-04-18T07:37:11.631Z,85.88
2023-04-18T07:38:10.633Z,85.98
2023-04-18T07:39:10.629Z,86.60
2023-04-18T07:40:10.599Z,86.08
2023-04-18T07:41:10.618Z,86.08
2023-04-18T07:42:10.629Z,85.78
2023-04-18T07:43:10.603Z,85.88
2023-04-18T07:44:10.571Z,86.15
2023-04-18T07:45:10.591Z,85.94
2023-04-18T07:46:10.577Z,85.84
2023-04-18T07:47:10.667Z,86.05
2023-04-18T07:48:10.630Z,85.43
2023-04-18T07:49:10.512Z,86.15
2023-04-18T07:50:10.495Z,85.43
2023-04-18T07:51:10.510Z,85.84
2023-04-18T07:52:10.502Z,86.46
2023-04-18T07:53:10.500Z,85.63
2023-04-18T07:54:10.488Z,85.94
2023-04-18T07:55:10.517Z,85.84
2023-04-18T07:56:10.434Z,86.35
2023-04-18T07:57:10.473Z,85.43
2023-04-18T07:58:10.472Z,85.43
2023-04-18T07:59:10.446Z,85.43
2023-04-18T08:00:10.539Z,85.39
2023-04-18T08:01:10.486Z,85.80
2023-04-18T08:02:10.442Z,85.49
2023-04-18T08:03:10.628Z,85.49
2023-04-18T08:04:10.562Z,85.60
2023-04-18T08:05:10.634Z,85.80
2023-04-18T08:06:10.359Z,86.32
2023-04-18T08:07:10.330Z,85.39
2023-04-18T08:08:10.358Z,86.11
2023-04-18T08:09:10.359Z,86.62
2023-04-18T08:10:10.357Z,86.32
2023-04-18T08:11:10.295Z,86.52
2023-04-18T08:12:10.287Z,86.42
2023-04-18T08:13:10.286Z,86.72
2023-04-18T08:14:10.277Z,86.72
2023-04-18T08:15:10.246Z,86.83
2023-04-18T08:16:10.365Z,86.93
2023-04-18T08:17:10.231Z,86.32
2023-04-18T08:18:10.216Z,86.00
2023-04-18T08:19:10.199Z,86.00
2023-04-18T08:20:10.200Z,86.83
2023-04-18T08:21:10.182Z,86.17
2023-04-18T08:22:10.233Z,86.48
2023-04-18T08:23:12.839Z,86.68
2023-04-18T08:24:10.134Z,86.68
2023-04-18T08:25:10.157Z,86.48
2023-04-18T08:26:10.136Z,86.27
2023-04-18T08:27:10.182Z,85.66
2023-04-18T08:28:10.111Z,85.35
2023-04-18T08:29:10.144Z,86.07
2023-04-18T08:30:10.094Z,85.55
2023-04-18T08:31:10.075Z,85.41
2023-04-18T08:32:10.223Z,84.69
2023-04-18T08:33:10.140Z,84.90
2023-04-18T08:34:10.030Z,85.31
2023-04-18T08:35:10.075Z,85.52
2023-04-18T08:36:10.020Z,85.93
2023-04-18T08:37:10.018Z,85.31
2023-04-18T08:38:09.984Z,85.62
2023-04-18T08:39:10.064Z,85.72
2023-04-18T08:40:10.042Z,84.59
2023-04-18T08:41:09.974Z,85.11
2023-04-18T08:42:09.958Z,84.59
2023-04-18T08:43:09.966Z,84.59
2023-04-18T08:44:09.912Z,85.31
2023-04-18T08:45:09.981Z,84.39
2023-04-18T08:46:09.959Z,85.11
2023-04-18T08:47:09.907Z,85.21
2023-04-18T08:48:09.920Z,85.11
2023-04-18T08:49:11.876Z,84.66
2023-04-18T08:50:09.888Z,84.45
2023-04-18T08:51:09.898Z,85.06
2023-04-18T08:52:09.875Z,85.13
2023-04-18T08:53:09.931Z,85.54
2023-04-18T08:54:09.810Z,86.77
2023-04-18T08:55:10.516Z,85.74
2023-04-18T08:56:09.797Z,84.41
2023-04-18T08:57:09.800Z,84.00
2023-04-18T08:58:09.794Z,85.54
2023-04-18T08:59:09.761Z,85.44
2023-04-18T09:00:09.788Z,85.17
2023-04-18T09:01:09.782Z,84.82
2023-04-18T09:02:09.815Z,84.61
2023-04-18T09:03:09.846Z,85.33
2023-04-18T09:04:09.731Z,84.14
2023-04-18T09:05:09.740Z,84.34
2023-04-18T09:06:09.717Z,84.25
2023-04-18T09:07:09.682Z,84.04
2023-04-18T09:08:09.728Z,85.27
2023-04-18T09:09:09.685Z,84.55
2023-04-18T09:10:09.668Z,84.76
2023-04-18T09:11:09.662Z,84.55
2023-04-18T09:12:09.660Z,84.96
2023-04-18T09:13:09.667Z,84.34
2023-04-18T09:14:09.651Z,84.66
2023-04-18T09:15:09.617Z,85.06
2023-04-18T09:16:09.698Z,85.17
2023-04-18T09:17:09.586Z,85.33
2023-04-18T09:18:09.612Z,84.92
2023-04-18T09:19:09.596Z,84.20
2023-04-18T09:20:10.537Z,84.72
2023-04-18T09:21:09.542Z,83.80
2023-04-18T09:22:09.538Z,83.69
2023-04-18T09:23:09.534Z,83.53
2023-04-18T09:24:09.513Z,84.61
2023-04-18T09:25:09.544Z,84.52
2023-04-18T09:26:09.479Z,83.49
2023-04-18T09:27:09.479Z,84.31
2023-04-18T09:28:09.487Z,84.41
2023-04-18T09:29:09.475Z,83.86
2023-04-18T09:30:09.502Z,83.25
2023-04-18T09:31:09.580Z,83.00
2023-04-18T09:32:09.458Z,82.59
2023-04-18T09:33:09.552Z,82.65
2023-04-18T09:34:09.461Z,82.35
2023-04-18T09:35:09.401Z,83.44
2023-04-18T09:36:09.416Z,83.64
2023-04-18T09:37:09.500Z,83.95
2023-04-18T09:38:09.394Z,82.89
2023-04-18T09:39:09.369Z,82.37
2023-04-18T09:40:09.376Z,82.07
2023-04-18T09:41:09.397Z,82.27
2023-04-18T09:42:09.323Z,81.76
2023-04-18T09:43:09.313Z,83.50
2023-04-18T09:44:11.632Z,84.22
2023-04-18T09:45:09.301Z,82.27
2023-04-18T09:46:09.415Z,81.18
2023-04-18T09:47:09.299Z,81.29
2023-04-18T09:48:09.310Z,82.21
2023-04-18T09:49:10.891Z,81.59
2023-04-18T09:50:09.257Z,82.55
2023-04-18T09:51:09.253Z,83.37
2023-04-18T09:52:09.246Z,84.29
2023-04-18T09:53:09.219Z,85.22
2023-04-18T09:54:09.232Z,84.95
2023-04-18T09:55:09.207Z,86.34
2023-04-18T09:56:09.170Z,86.96
2023-04-18T09:57:09.217Z,84.80
2023-04-18T09:58:09.142Z,84.50
2023-04-18T09:59:09.198Z,83.78
2023-04-18T10:00:09.133Z,83.33
2023-04-18T10:01:09.198Z,82.62
2023-04-18T10:02:09.243Z,82.21
2023-04-18T10:03:09.245Z,82.21
2023-04-18T10:04:09.213Z,81.90
2023-04-18T10:05:09.131Z,81.70
2023-04-18T10:06:09.086Z,81.70
2023-04-18T10:07:09.144Z,82.51
2023-04-18T10:08:09.075Z,83.17
2023-04-18T10:09:09.067Z,82.92
2023-04-18T10:10:09.118Z,82.55
2023-04-18T10:11:09.062Z,82.35
2023-04-18T10:12:09.009Z,82.45
2023-04-18T10:13:09.038Z,83.68
2023-04-18T10:14:09.038Z,83.27
2023-04-18T10:15:08.977Z,83.17
2023-04-18T10:16:09.002Z,83.47
2023-04-18T10:17:08.977Z,83.27
2023-04-18T10:18:08.986Z,83.58
2023-04-18T10:19:08.953Z,84.19
2023-04-18T10:20:08.941Z,83.68
2023-04-18T10:21:08.919Z,83.17
2023-04-18T10:22:08.919Z,83.58
2023-04-18T10:23:08.967Z,83.78
2023-04-18T10:24:08.903Z,83.06
2023-04-18T10:25:08.934Z,83.27
2023-04-18T10:26:08.898Z,83.58
2023-04-18T10:27:08.912Z,83.06
2023-04-18T10:28:08.885Z,82.76
2023-04-18T10:29:08.824Z,83.17
2023-04-18T10:30:09.274Z,82.62
2023-04-18T10:31:08.874Z,82.51
2023-04-18T10:32:08.794Z,82.31
2023-04-18T10:33:15.437Z,81.90
2023-04-18T10:34:08.796Z,82.37
2023-04-18T10:35:08.785Z,81.35
2023-04-18T10:36:08.754Z,81.45
2023-04-18T10:37:08.779Z,80.94
2023-04-18T10:38:08.743Z,81.15
2023-04-18T10:39:08.734Z,81.31
2023-04-18T10:40:08.697Z,81.21
2023-04-18T10:41:08.729Z,80.90
2023-04-18T10:42:08.715Z,80.63
2023-04-18T10:43:08.714Z,81.21
2023-04-18T10:44:09.056Z,81.41
2023-04-18T10:45:08.684Z,81.41
2023-04-18T10:46:17.069Z,81.41
2023-04-18T10:47:08.731Z,81.10
2023-04-18T10:48:08.719Z,80.80
2023-04-18T10:49:08.612Z,81.31
2023-04-18T10:50:08.629Z,80.76
2023-04-18T10:51:08.645Z,79.74
2023-04-18T10:52:08.635Z,79.16
2023-04-18T10:53:08.583Z,80.08
2023-04-18T10:54:08.671Z,80.08
2023-04-18T10:55:08.579Z,79.37
2023-04-18T10:56:08.564Z,79.27
2023-04-18T10:57:08.572Z,79.27
2023-04-18T10:58:08.514Z,79.88
2023-04-18T10:59:08.536Z,80.05
2023-04-18T11:00:08.516Z,80.87
2023-04-18T11:01:08.613Z,79.94
2023-04-18T11:02:08.528Z,79.94
2023-04-18T11:03:08.570Z,78.92
2023-04-18T11:04:08.523Z,79.43
2023-04-18T11:05:08.490Z,79.64
2023-04-18T11:06:08.456Z,79.84
2023-04-18T11:07:08.474Z,79.23
2023-04-18T11:08:08.423Z,79.23
2023-04-18T11:09:08.439Z,79.74
2023-04-18T11:10:08.461Z,79.64
2023-04-18T11:11:08.477Z,79.84
2023-04-18T11:12:08.369Z,79.23
2023-04-18T11:13:08.398Z,79.29
2023-04-18T11:14:08.375Z,79.50
2023-04-18T11:15:08.367Z,78.95
2023-04-18T11:16:08.386Z,78.44
2023-04-18T11:17:08.327Z,77.31
2023-04-18T11:18:08.362Z,77.62
2023-04-18T11:19:08.352Z,78.81
2023-04-18T11:20:08.304Z,78.41
2023-04-18T11:21:08.318Z,78.50
2023-04-18T11:22:08.280Z,77.34
2023-04-18T11:23:08.285Z,76.84
2023-04-18T11:24:08.249Z,77.65
2023-04-18T11:25:08.255Z,77.45
2023-04-18T11:26:08.247Z,77.25
2023-04-18T11:27:08.225Z,77.14
2023-04-18T11:28:08.222Z,77.69
2023-04-18T11:29:08.222Z,78.20
2023-04-18T11:30:08.249Z,76.16
2023-04-18T11:31:08.173Z,76.16
2023-04-18T11:32:08.240Z,76.56
2023-04-18T11:33:08.226Z,76.97
2023-04-18T11:34:08.170Z,77.18
2023-04-18T11:35:08.167Z,76.77
2023-04-18T11:36:08.128Z,75.75
2023-04-18T11:37:08.120Z,75.95
2023-04-18T11:38:08.103Z,75.75
2023-04-18T11:39:08.111Z,75.75
2023-04-18T11:40:08.114Z,75.24
2023-04-18T11:41:08.100Z,74.93
2023-04-18T11:42:08.055Z,75.13
2023-04-18T11:43:08.053Z,75.24
2023-04-18T11:44:08.054Z,76.16
2023-04-18T11:45:08.032Z,76.63
2023-04-18T11:46:08.087Z,76.63
2023-04-18T11:47:07.994Z,76.63
2023-04-18T11:48:08.009Z,76.53
2023-04-18T11:49:08.022Z,76.84
2023-04-18T11:50:07.986Z,76.84
2023-04-18T11:51:07.967Z,76.22
2023-04-18T11:52:07.984Z,76.53
2023-04-18T11:53:07.960Z,77.25
2023-04-18T11:54:07.947Z,76.53
2023-04-18T11:55:07.947Z,74.59
2023-04-18T11:56:07.919Z,75.61
2023-04-18T11:57:07.934Z,76.53
2023-04-18T11:58:07.901Z,75.68
2023-04-18T11:59:07.900Z,75.74
2023-04-18T12:00:07.899Z,73.19
2023-04-18T12:01:07.875Z,72.17
2023-04-18T12:02:16.267Z,71.77
2023-04-18T12:03:08.936Z,72.69
2023-04-18T12:04:08.105Z,73.57
2023-04-18T12:05:08.158Z,73.19
2023-04-18T12:06:07.836Z,73.91
2023-04-18T12:07:07.802Z,73.36
2023-04-18T12:08:07.809Z,74.38
2023-04-18T12:09:07.812Z,74.38
2023-04-18T12:10:07.819Z,73.57
2023-04-18T12:11:07.787Z,73.88
2023-04-18T12:12:07.747Z,73.77
2023-04-18T12:13:07.803Z,73.02
2023-04-18T12:14:07.713Z,73.36
2023-04-18T12:15:07.727Z,74.25
2023-04-18T12:16:07.837Z,73.47
2023-04-18T12:17:07.689Z,74.28
2023-04-18T12:18:07.796Z,74.01
2023-04-18T12:19:07.657Z,74.62
2023-04-18T12:20:07.788Z,74.83
2023-04-18T12:21:07.654Z,74.83
2023-04-18T12:22:07.639Z,75.54
2023-04-18T12:23:07.648Z,75.74
2023-04-18T12:24:07.630Z,74.01
2023-04-18T12:25:07.588Z,75.03
2023-04-18T12:26:07.639Z,75.54
2023-04-18T12:27:07.598Z,76.56
2023-04-18T12:28:07.588Z,75.74
2023-04-18T12:29:07.594Z,75.03
2023-04-18T12:30:07.645Z,74.21
2023-04-18T12:31:07.680Z,73.40
2023-04-18T12:32:07.549Z,73.64
2023-04-18T12:33:07.509Z,72.62
2023-04-18T12:34:07.524Z,73.43
2023-04-18T12:35:07.504Z,73.94
2023-04-18T12:36:07.501Z,73.74
2023-04-18T12:37:07.451Z,74.45
2023-04-18T12:38:07.469Z,74.25
2023-04-18T12:39:07.452Z,76.35
2023-04-18T12:40:07.445Z,73.94
2023-04-18T12:41:07.460Z,74.45
2023-04-18T12:42:07.416Z,73.54
2023-04-18T12:43:07.535Z,73.74
2023-04-18T12:44:07.392Z,74.66
2023-04-18T12:45:07.374Z,75.27
2023-04-18T12:46:07.473Z,74.35
2023-04-18T12:47:07.373Z,75.13
2023-04-18T12:48:07.528Z,74.73
2023-04-18T12:49:07.367Z,74.21
2023-04-18T12:50:08.860Z,73.30
2023-04-18T12:51:07.332Z,73.50
2023-04-18T12:52:07.389Z,72.99